Time;durP1;ratioP1;P1;durP2;ratioP2;P2;SDS_P1;SDS_P2;PMS_P1;PMS_P2;Temp;Humidity;BMP_temperature;BMP_pressure;BME280_temperature;BME280_humidity;BME280_pressure;Samples;Min_cycle;Max_cycle;Signal;HPM_P1;HPM_P2
2024/04/08 00:01:25;;;;;;;4.78;2.03;;;21.60;61.50;;;;;;5440552;26;20085;-60
2024/04/08 00:03:51;;;;;;;3.45;1.90;;;21.60;61.50;;;;;;5428000;25;20072;-57
2024/04/08 00:06:16;;;;;;;4.45;2.13;;;21.60;61.50;;;;;;5396157;26;20655;-56
2024/04/08 00:08:41;;;;;;;5.53;1.70;;;21.60;61.60;;;;;;5429472;25;20091;-55
2024/04/08 00:11:07;;;;;;;4.47;2.13;;;21.60;61.60;;;;;;5447890;25;20067;-57
2024/04/08 00:13:37;;;;;;;5.47;2.30;;;21.60;61.60;;;;;;5446959;25;20006;-57
2024/04/08 00:16:04;;;;;;;3.75;2.35;;;21.60;61.60;;;;;;5439068;25;20351;-58
2024/04/08 00:18:30;;;;;;;4.28;2.10;;;21.60;61.60;;;;;;5424700;25;20013;-57
2024/04/08 00:21:05;;;;;;;3.42;1.63;;;21.60;61.50;;;;;;5418056;25;20003;-58
2024/04/08 00:23:32;;;;;;;3.10;1.73;;;21.60;62.20;;;;;;5422431;25;20014;-59
2024/04/08 00:26:04;;;;;;;3.80;2.33;;;21.60;61.60;;;;;;5420360;25;19999;-58
2024/04/08 00:28:30;;;;;;;4.75;2.05;;;21.60;61.50;;;;;;5415620;25;20765;-58
2024/04/08 00:31:06;;;;;;;3.88;2.00;;;21.60;62.20;;;;;;5416776;25;20007;-57
2024/04/08 00:33:36;;;;;;;4.10;2.00;;;21.60;61.50;;;;;;5427668;25;20331;-59
2024/04/08 00:36:03;;;;;;;4.22;2.00;;;21.60;61.50;;;;;;5416001;25;20335;-57
2024/04/08 00:38:29;;;;;;;4.78;1.83;;;21.60;61.60;;;;;;5416959;25;20037;-58
2024/04/08 00:40:55;;;;;;;3.38;2.00;;;21.60;61.50;;;;;;5421101;25;20000;-59
2024/04/08 00:43:20;;;;;;;3.70;1.88;;;21.60;61.50;;;;;;5433443;25;20039;-58
2024/04/08 00:45:47;;;;;;;2.83;1.65;;;21.60;61.50;;;;;;5414832;25;20352;-57
2024/04/08 00:48:14;;;;;;;2.70;1.75;;;21.60;61.50;;;;;;5426687;25;19999;-59
2024/04/08 00:50:47;;;;;;;3.25;2.10;;;21.60;61.50;;;;;;5427561;25;20068;-58
2024/04/08 00:53:13;;;;;;;3.28;1.60;;;21.60;61.50;;;;;;5425413;25;20443;-58
2024/04/08 00:55:39;;;;;;;3.33;1.90;;;21.60;61.50;;;;;;5422496;25;20007;-58
2024/04/08 00:58:05;;;;;;;5.80;2.17;;;21.60;61.40;;;;;;5413180;25;20043;-59
2024/04/08 01:00:31;;;;;;;9.07;2.20;;;21.60;61.50;;;;;;5401186;26;20003;-58
2024/04/08 01:03:02;;;;;;;3.35;1.98;;;21.60;61.40;;;;;;5408400;25;20702;-59
2024/04/08 01:05:29;;;;;;;6.03;2.05;;;21.60;61.40;;;;;;5453365;25;20001;-58
2024/04/08 01:07:54;;;;;;;4.25;1.90;;;21.60;61.40;;;;;;5443600;26;20010;-58
2024/04/08 01:10:20;;;;;;;3.92;2.00;;;21.60;61.40;;;;;;5418552;26;19998;-60
2024/04/08 01:12:46;;;;;;;2.83;1.67;;;21.60;61.40;;;;;;5424687;26;20080;-58
2024/04/08 01:15:12;;;;;;;4.03;1.65;;;21.60;61.30;;;;;;5424213;26;20435;-58
2024/04/08 01:17:37;;;;;;;2.92;1.95;;;21.60;61.30;;;;;;5419471;26;20052;-58
2024/04/08 01:20:04;;;;;;;3.03;2.10;;;21.60;61.30;;;;;;5429754;26;20014;-57
2024/04/08 01:22:31;;;;;;;4.65;1.88;;;21.60;61.40;;;;;;5388837;26;20031;-59
2024/04/08 01:25:00;;;;;;;3.22;2.00;;;21.60;61.40;;;;;;5422106;26;19999;-58
2024/04/08 01:27:26;;;;;;;4.28;2.05;;;21.60;61.40;;;;;;5418420;26;20071;-59
2024/04/08 01:29:52;;;;;;;3.45;1.73;;;21.60;61.40;;;;;;5400865;26;20455;-59
2024/04/08 01:32:17;;;;;;;2.80;1.90;;;21.60;61.40;;;;;;5393958;26;20071;-59
2024/04/08 01:34:43;;;;;;;3.50;1.70;;;21.60;61.40;;;;;;5377733;26;20000;-58
2024/04/08 01:37:08;;;;;;;3.28;1.85;;;21.60;61.40;;;;;;5401138;26;20276;-58
2024/04/08 01:39:34;;;;;;;2.72;1.60;;;21.60;61.40;;;;;;5398598;26;20022;-59
2024/04/08 01:42:00;;;;;;;4.45;1.88;;;21.60;61.40;;;;;;5405096;26;19996;-58
2024/04/08 01:44:25;;;;;;;2.72;2.00;;;21.60;61.40;;;;;;5397873;26;20426;-58
2024/04/08 01:46:51;;;;;;;2.92;1.90;;;21.60;61.40;;;;;;5404279;26;20043;-58
2024/04/08 01:49:16;;;;;;;3.33;1.67;;;21.60;61.40;;;;;;5396982;26;20073;-59
2024/04/08 01:51:42;;;;;;;4.18;1.48;;;21.60;61.40;;;;;;5403955;26;20351;-58
2024/04/08 01:54:12;;;;;;;3.67;1.85;;;21.60;61.60;;;;;;5367397;21;20011;-55
2024/04/08 01:56:38;;;;;;;4.38;2.05;;;21.60;61.80;;;;;;5244277;27;20560;-59
2024/04/08 01:59:03;;;;;;;3.58;1.67;;;21.60;61.80;;;;;;5273403;27;20475;-55
2024/04/08 02:01:29;;;;;;;2.53;1.63;;;21.60;61.80;;;;;;5268283;27;20013;-48
2024/04/08 02:03:54;;;;;;;3.50;2.13;;;21.70;61.80;;;;;;5268052;27;20501;-50
2024/04/08 02:06:20;;;;;;;3.75;1.73;;;21.60;61.80;;;;;;5263644;27;21014;-53
2024/04/08 02:08:45;;;;;;;4.05;1.83;;;21.70;61.80;;;;;;5266534;27;20518;-47
2024/04/08 02:11:11;;;;;;;3.40;2.05;;;21.70;61.80;;;;;;5273498;27;20006;-49
2024/04/08 02:13:36;;;;;;;3.67;1.67;;;21.70;61.80;;;;;;5269372;27;20331;-53
2024/04/08 02:16:07;;;;;;;4.72;1.85;;;21.70;61.80;;;;;;5264492;27;20740;-55
2024/04/08 02:18:36;;;;;;;2.60;1.55;;;21.70;61.80;;;;;;5269067;27;20009;-55
2024/04/08 02:21:02;;;;;;;4.72;1.83;;;21.70;61.90;;;;;;5252552;27;20069;-58
2024/04/08 02:23:28;;;;;;;2.97;1.67;;;21.70;61.80;;;;;;5266817;27;20010;-47
2024/04/08 02:25:53;;;;;;;3.35;1.67;;;21.70;61.80;;;;;;5257102;26;20080;-49
2024/04/08 02:28:19;;;;;;;3.63;1.73;;;21.70;61.80;;;;;;5232027;26;20003;-56
2024/04/08 02:30:44;;;;;;;3.15;1.60;;;21.70;61.80;;;;;;5235376;27;20003;-59
2024/04/08 02:33:10;;;;;;;2.17;1.60;;;21.70;61.80;;;;;;5231417;27;20392;-52
2024/04/08 02:35:37;;;;;;;3.63;1.77;;;21.70;62.50;;;;;;5233315;26;20054;-52
2024/04/08 02:38:04;;;;;;;3.33;1.50;;;21.70;61.80;;;;;;5236542;27;20025;-54
2024/04/08 02:40:32;;;;;;;3.40;1.33;;;21.70;61.80;;;;;;5236337;27;19998;-47
2024/04/08 02:42:58;;;;;;;4.13;1.85;;;21.70;61.80;;;;;;5229985;26;20015;-51
2024/04/08 02:45:24;;;;;;;3.58;2.00;;;21.70;61.80;;;;;;5239270;26;20014;-53
2024/04/08 02:47:49;;;;;;;3.78;1.77;;;21.70;61.70;;;;;;5241672;26;20002;-58
2024/04/08 02:50:15;;;;;;;3.78;1.60;;;21.70;61.70;;;;;;5215405;27;20038;-52
2024/04/08 02:52:40;;;;;;;2.83;1.75;;;21.70;61.70;;;;;;5231187;26;20072;-52
2024/04/08 02:55:06;;;;;;;3.42;1.80;;;21.70;61.70;;;;;;5226745;26;20007;-49
2024/04/08 02:57:31;;;;;;;4.38;1.88;;;21.70;61.70;;;;;;5241247;26;20076;-54
2024/04/08 02:59:57;;;;;;;3.42;1.90;;;21.70;61.70;;;;;;5235551;26;20007;-46
2024/04/08 03:02:22;;;;;;;3.03;1.42;;;21.70;61.60;;;;;;5224699;27;20709;-61
2024/04/08 03:04:51;;;;;;;5.05;1.88;;;21.70;61.60;;;;;;5245681;27;20332;-49
2024/04/08 03:07:16;;;;;;;3.13;1.52;;;21.70;61.60;;;;;;5235535;27;20003;-49
2024/04/08 03:09:42;;;;;;;3.53;1.63;;;21.70;61.60;;;;;;5233608;26;20416;-51
2024/04/08 03:12:08;;;;;;;8.05;2.38;;;21.70;61.60;;;;;;5232359;27;20334;-52
2024/04/08 03:14:33;;;;;;;4.22;1.88;;;21.70;61.60;;;;;;5232144;27;20621;-51
2024/04/08 03:16:58;;;;;;;4.18;1.88;;;21.70;61.60;;;;;;5232857;26;20045;-51
2024/04/08 03:19:24;;;;;;;4.38;1.70;;;21.70;61.60;;;;;;5236076;27;20019;-49
2024/04/08 03:21:49;;;;;;;4.30;1.88;;;21.70;61.60;;;;;;5229516;27;19999;-51
2024/04/08 03:24:15;;;;;;;3.67;2.00;;;21.70;61.60;;;;;;5228911;26;20080;-47
2024/04/08 03:26:40;;;;;;;3.58;1.52;;;21.70;61.60;;;;;;5238937;26;20294;-49
2024/04/08 03:29:06;;;;;;;3.33;1.70;;;21.70;61.60;;;;;;5232233;27;20512;-51
2024/04/08 03:31:31;;;;;;;3.83;1.42;;;21.60;61.50;;;;;;5233511;26;20113;-55
2024/04/08 03:33:57;;;;;;;3.17;1.88;;;21.60;61.50;;;;;;5243274;27;20019;-52
2024/04/08 03:36:22;;;;;;;3.30;1.75;;;21.70;61.50;;;;;;5241269;26;20022;-53
2024/04/08 03:38:49;;;;;;;4.35;1.80;;;21.60;61.50;;;;;;5230386;27;20528;-51
2024/04/08 03:41:14;;;;;;;2.72;1.60;;;21.70;61.50;;;;;;5231869;26;20447;-54
2024/04/08 03:43:40;;;;;;;5.20;2.15;;;21.70;61.50;;;;;;5227364;27;20009;-47
2024/04/08 03:46:05;;;;;;;3.88;1.63;;;21.60;61.50;;;;;;5228650;27;20013;-52
2024/04/08 03:48:31;;;;;;;4.13;1.85;;;21.60;61.50;;;;;;5238211;27;19995;-50
2024/04/08 03:50:56;;;;;;;4.85;1.73;;;21.70;61.50;;;;;;5232797;27;20069;-50
2024/04/08 03:53:22;;;;;;;3.88;1.50;;;21.60;61.40;;;;;;5224327;27;20079;-49
2024/04/08 03:55:48;;;;;;;3.25;1.88;;;21.60;61.40;;;;;;5235971;27;20074;-47
2024/04/08 03:58:13;;;;;;;3.53;1.80;;;21.60;61.40;;;;;;5177663;27;20090;-49
2024/04/08 04:00:39;;;;;;;3.10;1.65;;;21.70;61.40;;;;;;5205478;27;20014;-51
2024/04/08 04:03:04;;;;;;;3.10;1.85;;;21.60;61.40;;;;;;5245182;27;20019;-51
2024/04/08 04:05:30;;;;;;;4.30;1.95;;;21.60;61.40;;;;;;5214973;27;20016;-52
2024/04/08 04:07:58;;;;;;;6.65;1.95;;;21.60;61.40;;;;;;5219163;27;20731;-49
2024/04/08 04:10:24;;;;;;;3.30;1.48;;;21.60;61.40;;;;;;5236197;27;20006;-49
2024/04/08 04:12:49;;;;;;;4.80;1.83;;;21.60;61.40;;;;;;5231088;27;20532;-50
2024/04/08 04:15:15;;;;;;;3.53;2.03;;;21.60;61.40;;;;;;5228409;27;20011;-53
2024/04/08 04:17:42;;;;;;;4.22;1.70;;;21.60;61.40;;;;;;5234874;27;20007;-50
2024/04/08 04:20:11;;;;;;;3.90;1.88;;;21.60;61.40;;;;;;5227952;27;20019;-49
2024/04/08 04:22:37;;;;;;;4.70;1.88;;;21.60;61.40;;;;;;5225826;27;20009;-48
2024/04/08 04:25:04;;;;;;;3.13;2.00;;;21.60;61.40;;;;;;5239396;27;20007;-49
2024/04/08 04:27:29;;;;;;;3.97;1.95;;;21.60;61.40;;;;;;5238408;26;20005;-50
2024/04/08 04:29:55;;;;;;;4.07;2.00;;;21.60;61.40;;;;;;5232618;27;20010;-51
2024/04/08 04:32:21;;;;;;;5.15;2.33;;;21.60;61.40;;;;;;5249050;27;20716;-50
2024/04/08 04:34:49;;;;;;;4.38;2.13;;;21.60;61.40;;;;;;5234671;27;20500;-53
2024/04/08 04:37:15;;;;;;;4.25;1.63;;;21.60;61.40;;;;;;5240872;27;20003;-52
2024/04/08 04:39:40;;;;;;;5.15;1.60;;;21.60;61.30;;;;;;5234404;27;20026;-54
2024/04/08 04:42:06;;;;;;;4.03;1.85;;;21.60;61.30;;;;;;5230121;27;20409;-53
2024/04/08 04:44:32;;;;;;;6.35;1.88;;;21.60;61.30;;;;;;5229836;27;19999;-51
2024/04/08 04:46:57;;;;;;;4.45;1.65;;;21.60;61.30;;;;;;5232377;27;20003;-49
2024/04/08 04:49:23;;;;;;;2.58;1.80;;;21.60;61.30;;;;;;5230273;27;20003;-57
2024/04/08 04:51:48;;;;;;;5.18;2.10;;;21.60;61.40;;;;;;5233577;27;20019;-49
2024/04/08 04:54:14;;;;;;;4.57;2.00;;;21.60;61.40;;;;;;5247237;27;20017;-50
2024/04/08 04:56:40;;;;;;;3.45;1.77;;;21.60;62.00;;;;;;5243300;27;20456;-52
2024/04/08 04:59:05;;;;;;;4.00;1.98;;;21.60;61.30;;;;;;5236427;27;20787;-57
2024/04/08 05:01:31;;;;;;;3.63;1.85;;;21.60;61.40;;;;;;5246906;27;20009;-54
2024/04/08 05:03:56;;;;;;;4.93;2.00;;;21.60;61.30;;;;;;5230853;27;20009;-50
2024/04/08 05:06:22;;;;;;;3.88;1.90;;;21.60;61.30;;;;;;5245807;27;20058;-47
2024/04/08 05:08:47;;;;;;;4.00;1.83;;;21.60;61.30;;;;;;5230870;27;20002;-47
2024/04/08 05:11:13;;;;;;;4.07;1.98;;;21.60;61.30;;;;;;5233454;27;20453;-54
2024/04/08 05:13:39;;;;;;;4.95;1.90;;;21.60;61.40;;;;;;5224448;27;20188;-52
2024/04/08 05:16:05;;;;;;;4.93;2.10;;;21.60;61.40;;;;;;5232646;27;20420;-48
2024/04/08 05:18:31;;;;;;;5.00;1.70;;;21.60;61.50;;;;;;5237711;27;20063;-48
2024/04/08 05:20:58;;;;;;;3.35;1.80;;;21.60;61.80;;;;;;5206627;27;20007;-50
2024/04/08 05:23:25;;;;;;;3.05;1.90;;;21.60;61.80;;;;;;5247435;27;20647;-47
2024/04/08 05:25:52;;;;;;;3.83;2.70;;;21.60;61.90;;;;;;5246591;27;20136;-48
2024/04/08 05:28:18;;;;;;;5.63;2.22;;;21.60;61.90;;;;;;5207588;27;20476;-52
2024/04/08 05:30:44;;;;;;;6.30;2.38;;;21.70;62.00;;;;;;5231638;27;20002;-49
2024/04/08 05:33:09;;;;;;;8.00;2.08;;;21.60;62.00;;;;;;5231975;27;20034;-52
2024/04/08 05:35:40;;;;;;;6.65;2.50;;;21.60;62.10;;;;;;5239869;27;20008;-52
2024/04/08 05:38:09;;;;;;;5.40;2.08;;;21.60;62.20;;;;;;5237274;27;20003;-56
2024/04/08 05:40:38;;;;;;;5.25;2.33;;;21.60;63.00;;;;;;5240169;27;20011;-53
2024/04/08 05:43:04;;;;;;;8.25;2.45;;;21.60;62.40;;;;;;5225132;27;20017;-53
2024/04/08 05:45:30;;;;;;;4.97;2.72;;;21.60;62.40;;;;;;5231925;27;20006;-48
2024/04/08 05:47:56;;;;;;;9.40;2.35;;;21.60;62.40;;;;;;5241277;27;20059;-50
2024/04/08 05:50:23;;;;;;;9.65;2.55;;;21.60;62.40;;;;;;5229027;27;20467;-58
2024/04/08 05:52:50;;;;;;;6.13;2.25;;;21.60;62.40;;;;;;5243686;27;20009;-51
2024/04/08 05:55:16;;;;;;;4.28;2.10;;;21.60;62.30;;;;;;5241244;27;20051;-51
2024/04/08 05:57:42;;;;;;;9.05;2.45;;;21.60;62.30;;;;;;5235547;27;20014;-50
2024/04/08 06:00:10;;;;;;;6.30;2.85;;;21.60;62.30;;;;;;5234676;27;20007;-47
2024/04/08 06:02:36;;;;;;;8.10;2.10;;;21.60;62.20;;;;;;5239792;26;20001;-52
2024/04/08 06:05:02;;;;;;;7.50;2.30;;;21.60;62.20;;;;;;5233175;27;20014;-48
2024/04/08 06:07:28;;;;;;;6.20;2.40;;;21.60;62.20;;;;;;5233864;27;20006;-53
2024/04/08 06:09:53;;;;;;;4.80;2.28;;;21.60;62.10;;;;;;5205017;27;20011;-49
2024/04/08 06:12:19;;;;;;;4.82;2.25;;;21.60;62.10;;;;;;5224156;27;20010;-49
2024/04/08 06:14:45;;;;;;;9.30;2.50;;;21.60;62.10;;;;;;5236263;27;20002;-52
2024/04/08 06:17:10;;;;;;;5.05;2.55;;;21.60;62.10;;;;;;5200229;27;20031;-55
2024/04/08 06:19:36;;;;;;;5.10;2.33;;;21.60;62.00;;;;;;5172486;27;20003;-47
2024/04/08 06:22:01;;;;;;;5.40;2.10;;;21.60;61.90;;;;;;5200073;27;20058;-50
2024/04/08 06:24:27;;;;;;;4.93;2.63;;;21.60;61.90;;;;;;5240471;27;20013;-54
2024/04/08 06:26:53;;;;;;;4.70;2.35;;;21.60;61.80;;;;;;5235807;27;20363;-53
2024/04/08 06:29:18;;;;;;;3.88;1.80;;;21.60;61.80;;;;;;5239594;27;20014;-47
2024/04/08 06:31:43;;;;;;;9.95;2.67;;;21.60;61.80;;;;;;5234627;27;20014;-53
2024/04/08 06:34:09;;;;;;;4.57;2.20;;;21.60;61.80;;;;;;5228545;27;20082;-47
2024/04/08 06:36:35;;;;;;;8.68;2.38;;;21.60;61.80;;;;;;5233529;27;20014;-54
2024/04/08 06:39:01;;;;;;;7.35;2.65;;;21.60;61.80;;;;;;5223368;27;20003;-50
2024/04/08 06:41:27;;;;;;;7.57;2.15;;;21.60;61.90;;;;;;5222362;27;20038;-53
2024/04/08 06:43:52;;;;;;;5.28;2.45;;;21.60;61.90;;;;;;5231335;27;19999;-52
2024/04/08 06:46:18;;;;;;;5.82;2.22;;;21.60;61.80;;;;;;5191009;27;20067;-53
2024/04/08 06:48:43;;;;;;;4.15;1.80;;;21.60;61.80;;;;;;5252545;26;20021;-46
2024/04/08 06:51:09;;;;;;;4.97;2.20;;;21.70;61.90;;;;;;5230649;27;20003;-50
2024/04/08 06:53:35;;;;;;;10.35;2.90;;;21.70;61.80;;;;;;5246255;26;20357;-52
2024/04/08 06:56:00;;;;;;;6.38;2.25;;;21.70;61.80;;;;;;5236819;27;20003;-53
2024/04/08 06:58:26;;;;;;;11.35;2.75;;;21.70;61.90;;;;;;5240343;27;20044;-55
2024/04/08 07:00:51;;;;;;;8.80;2.60;;;21.70;62.30;;;;;;5239584;27;20007;-52
2024/04/08 07:03:17;;;;;;;6.97;2.00;;;21.70;62.60;;;;;;5232377;27;20003;-47
2024/04/08 07:05:44;;;;;;;8.27;2.60;;;21.80;62.80;;;;;;5228546;27;20107;-50
2024/04/08 07:08:10;;;;;;;6.22;2.88;;;21.80;62.90;;;;;;5241004;27;20070;-51
2024/04/08 07:10:36;;;;;;;7.47;2.40;;;21.80;62.70;;;;;;5257247;26;20724;-52
2024/04/08 07:13:05;;;;;;;10.70;3.10;;;21.80;62.60;;;;;;5260500;27;20010;-49
2024/04/08 07:15:31;;;;;;;6.43;2.58;;;21.80;62.60;;;;;;5250438;27;20183;-50
2024/04/08 07:17:57;;;;;;;6.43;2.13;;;21.80;62.40;;;;;;5247176;26;20020;-46
2024/04/08 07:20:23;;;;;;;5.65;2.53;;;21.80;62.30;;;;;;5238038;27;20003;-50
2024/04/08 07:22:48;;;;;;;5.82;2.55;;;21.80;62.30;;;;;;5237936;27;20441;-47
2024/04/08 07:25:14;;;;;;;7.15;1.98;;;21.70;62.20;;;;;;5230931;27;19999;-52
2024/04/08 07:27:39;;;;;;;8.07;2.42;;;21.80;62.90;;;;;;5231423;27;20081;-50
2024/04/08 07:30:05;;;;;;;4.35;2.65;;;21.80;62.30;;;;;;5226989;27;20871;-54
2024/04/08 07:32:32;;;;;;;5.25;2.33;;;21.70;62.20;;;;;;5232716;27;20344;-52
2024/04/08 07:34:58;;;;;;;10.63;2.58;;;21.70;62.20;;;;;;5223916;27;20002;-52
2024/04/08 07:37:25;;;;;;;7.53;2.28;;;21.70;62.20;;;;;;5229864;26;20515;-48
2024/04/08 07:39:50;;;;;;;8.65;2.63;;;21.70;62.20;;;;;;5232810;27;20013;-49
2024/04/08 07:42:16;;;;;;;6.10;2.35;;;21.70;62.20;;;;;;5223323;27;20055;-50
2024/04/08 07:44:41;;;;;;;12.50;2.85;;;21.70;62.30;;;;;;5245712;27;20771;-48
2024/04/08 07:47:07;;;;;;;6.53;2.67;;;21.70;62.50;;;;;;5223371;27;19995;-54
2024/04/08 07:49:33;;;;;;;7.30;2.40;;;21.70;62.40;;;;;;5242537;27;19998;-52
2024/04/08 07:51:58;;;;;;;20.58;2.80;;;21.70;62.40;;;;;;5232427;27;20003;-47
2024/04/08 07:54:24;;;;;;;6.65;2.08;;;21.70;62.60;;;;;;5233498;27;20423;-51
2024/04/08 07:56:49;;;;;;;5.63;2.22;;;21.70;62.40;;;;;;5226400;27;20028;-49
2024/04/08 07:59:14;;;;;;;6.40;2.30;;;21.70;62.40;;;;;;5234026;27;20805;-49
2024/04/08 08:01:40;;;;;;;5.60;2.28;;;21.70;62.40;;;;;;5167158;27;20016;-60
2024/04/08 08:04:05;;;;;;;7.88;1.92;;;21.70;62.40;;;;;;5235023;27;20003;-46
2024/04/08 08:06:31;;;;;;;12.07;2.40;;;21.70;62.90;;;;;;5243915;27;20024;-51
2024/04/08 08:08:57;;;;;;;6.20;2.42;;;21.80;63.20;;;;;;5226973;27;20018;-50
2024/04/08 08:11:22;;;;;;;8.40;2.25;;;21.80;62.60;;;;;;5249471;27;20017;-58
2024/04/08 08:13:48;;;;;;;7.25;2.20;;;21.80;62.50;;;;;;5256362;27;19998;-49
2024/04/08 08:16:13;;;;;;;10.35;2.22;;;21.80;62.50;;;;;;5248438;27;20007;-52
2024/04/08 08:18:39;;;;;;;7.63;2.17;;;21.80;62.50;;;;;;5257372;27;20022;-54
2024/04/08 08:21:06;;;;;;;8.50;2.30;;;21.70;62.50;;;;;;5255036;27;20078;-51
2024/04/08 08:23:31;;;;;;;6.43;2.35;;;21.70;62.50;;;;;;5257670;27;20533;-49
2024/04/08 08:25:58;;;;;;;9.02;2.47;;;21.70;62.50;;;;;;5248482;27;20034;-54
2024/04/08 08:28:24;;;;;;;6.63;2.15;;;21.70;62.50;;;;;;5261511;27;20013;-56
2024/04/08 08:30:49;;;;;;;5.05;1.63;;;21.70;62.50;;;;;;5261628;27;20002;-51
2024/04/08 08:33:15;;;;;;;5.20;1.95;;;21.70;62.50;;;;;;5261133;27;20025;-57
2024/04/08 08:35:40;;;;;;;4.90;2.25;;;21.70;62.50;;;;;;5262214;27;20487;-46
2024/04/08 08:38:06;;;;;;;5.95;2.50;;;21.70;62.50;;;;;;5265276;26;20002;-47
2024/04/08 08:40:41;;;;;;;5.93;1.50;;;21.70;62.60;;;;;;5241732;27;20011;-48
2024/04/08 08:43:08;;;;;;;6.70;2.10;;;21.70;62.50;;;;;;5262228;27;20003;-56
2024/04/08 08:45:36;;;;;;;4.65;2.40;;;21.70;62.50;;;;;;5273838;26;19998;-52
2024/04/08 08:48:02;;;;;;;8.40;2.50;;;21.70;62.50;;;;;;5264559;27;20466;-57
2024/04/08 08:50:29;;;;;;;5.57;1.80;;;21.70;62.50;;;;;;5269619;27;20021;-56
2024/04/08 08:52:54;;;;;;;7.30;2.00;;;21.70;62.50;;;;;;5273800;26;20035;-56
2024/04/08 08:55:22;;;;;;;7.05;1.90;;;21.70;62.60;;;;;;5257128;26;20679;-48
2024/04/08 08:57:48;;;;;;;3.42;1.88;;;21.70;62.50;;;;;;5263184;26;20440;-58
2024/04/08 09:00:15;;;;;;;5.55;1.80;;;21.70;62.60;;;;;;5272293;27;20002;-57
2024/04/08 09:02:41;;;;;;;2.60;1.70;;;21.70;62.50;;;;;;5261114;27;20006;-47
2024/04/08 09:05:08;;;;;;;4.78;1.90;;;21.70;62.60;;;;;;5267024;27;20002;-47
2024/04/08 09:07:33;;;;;;;4.35;1.70;;;21.70;62.50;;;;;;5268843;27;20009;-51
2024/04/08 09:09:59;;;;;;;4.95;1.60;;;21.70;62.50;;;;;;5265900;27;20390;-49
2024/04/08 09:12:26;;;;;;;4.75;2.13;;;21.70;62.60;;;;;;5269238;27;20029;-49
2024/04/08 09:14:52;;;;;;;2.88;1.80;;;21.70;62.70;;;;;;5261666;26;20089;-57
2024/04/08 09:17:18;;;;;;;4.00;2.00;;;21.70;62.60;;;;;;5264401;27;20508;-52
2024/04/08 09:19:44;;;;;;;3.40;1.90;;;21.70;62.60;;;;;;5236296;27;20102;-51
2024/04/08 09:22:10;;;;;;;4.20;1.98;;;21.70;62.70;;;;;;5272580;27;20861;-47
2024/04/08 09:24:36;;;;;;;2.60;1.45;;;21.70;62.60;;;;;;5260694;27;20016;-46
2024/04/08 09:27:02;;;;;;;4.38;1.75;;;21.70;62.70;;;;;;5262278;27;20003;-48
2024/04/08 09:29:28;;;;;;;3.95;1.63;;;21.70;62.70;;;;;;5261384;27;20030;-52
2024/04/08 09:31:54;;;;;;;3.42;2.20;;;21.70;62.60;;;;;;5241726;27;20017;-47
2024/04/08 09:34:19;;;;;;;2.67;1.45;;;21.70;62.60;;;;;;5272212;27;20005;-52
2024/04/08 09:36:46;;;;;;;4.05;1.73;;;21.70;62.70;;;;;;5269273;27;20408;-48
2024/04/08 09:39:12;;;;;;;3.75;2.00;;;21.70;62.70;;;;;;5243086;27;20021;-48
2024/04/08 09:41:39;;;;;;;3.78;1.60;;;21.70;62.70;;;;;;5268321;27;20001;-48
2024/04/08 09:44:09;;;;;;;2.17;1.33;;;21.70;62.70;;;;;;5271296;26;20034;-59
2024/04/08 09:46:35;;;;;;;2.35;1.58;;;21.70;62.70;;;;;;5269648;27;20013;-60
2024/04/08 09:49:03;;;;;;;2.08;1.45;;;21.70;62.70;;;;;;5262280;27;20010;-58
2024/04/08 09:51:30;;;;;;;3.28;1.75;;;21.70;62.70;;;;;;5267967;27;20018;-57
2024/04/08 09:53:56;;;;;;;4.63;1.95;;;21.70;62.70;;;;;;5261220;27;20073;-48
2024/04/08 09:56:22;;;;;;;4.18;1.55;;;21.70;63.40;;;;;;5236359;27;20014;-54
2024/04/08 09:59:13;;;;;;;2.30;1.65;;;21.70;62.70;;;;;;5231060;27;20089;-47
2024/04/08 10:01:38;;;;;;;2.63;1.40;;;21.70;62.80;;;;;;5249368;27;20006;-56
2024/04/08 10:04:29;;;;;;;3.05;1.40;;;21.70;62.70;;;;;;5260950;26;20017;-49
2024/04/08 10:06:55;;;;;;;4.90;1.75;;;21.70;62.70;;;;;;5242856;27;20002;-47
2024/04/08 10:09:21;;;;;;;2.50;1.65;;;21.70;62.70;;;;;;5254473;27;20234;-58
2024/04/08 10:11:51;;;;;;;2.38;1.23;;;21.70;62.70;;;;;;5257882;26;20782;-47
2024/04/08 10:14:18;;;;;;;2.78;1.40;;;21.70;62.80;;;;;;5257929;27;20002;-46
2024/04/08 10:16:44;;;;;;;2.50;1.30;;;21.70;62.70;;;;;;5256793;26;19998;-57
2024/04/08 10:19:13;;;;;;;2.53;1.45;;;21.70;62.70;;;;;;5260520;27;20486;-57
2024/04/08 10:21:38;;;;;;;2.03;1.10;;;21.70;62.70;;;;;;5262664;26;20002;-53
2024/04/08 10:24:05;;;;;;;3.40;1.30;;;21.70;62.70;;;;;;5258511;27;20006;-50
2024/04/08 10:26:34;;;;;;;4.53;1.70;;;21.70;62.70;;;;;;5258989;27;20016;-48
2024/04/08 10:29:00;;;;;;;3.20;1.50;;;21.70;62.70;;;;;;5259057;27;20010;-53
2024/04/08 10:31:29;;;;;;;2.95;1.45;;;21.70;62.70;;;;;;5255106;27;20412;-55
2024/04/08 10:33:54;;;;;;;3.65;1.67;;;21.70;62.70;;;;;;5258347;27;20014;-46
2024/04/08 10:36:20;;;;;;;3.00;1.38;;;21.70;62.70;;;;;;5259183;27;20732;-51
2024/04/08 10:38:46;;;;;;;3.35;0.98;;;21.70;62.70;;;;;;5259223;27;20014;-58
2024/04/08 10:41:12;;;;;;;2.08;1.23;;;21.70;62.70;;;;;;5256960;26;20014;-56
2024/04/08 10:43:38;;;;;;;4.55;1.98;;;21.70;62.70;;;;;;5256800;26;20535;-53
2024/04/08 10:46:14;;;;;;;1.90;1.10;;;21.70;62.70;;;;;;5256318;26;19998;-47
2024/04/08 10:48:40;;;;;;;2.00;1.17;;;21.70;62.70;;;;;;5258713;27;20006;-47
2024/04/08 10:51:09;;;;;;;3.95;1.45;;;21.70;62.70;;;;;;5259949;26;20081;-50
2024/04/08 10:53:34;;;;;;;2.35;1.10;;;21.70;62.70;;;;;;5259995;27;20043;-57
2024/04/08 10:56:00;;;;;;;3.70;1.48;;;21.70;62.70;;;;;;5256268;26;20019;-49
2024/04/08 10:58:25;;;;;;;3.78;1.20;;;21.70;62.70;;;;;;5254829;27;20010;-56
2024/04/08 11:00:51;;;;;;;2.33;1.45;;;21.70;62.80;;;;;;5259046;27;20002;-54
2024/04/08 11:03:17;;;;;;;3.08;1.20;;;21.70;62.70;;;;;;5259444;26;20472;-56
2024/04/08 11:05:43;;;;;;;1.73;0.88;;;21.70;62.70;;;;;;5260166;26;20013;-50
2024/04/08 11:08:11;;;;;;;3.90;1.23;;;21.70;62.70;;;;;;5260117;26;20037;-52
2024/04/08 11:10:36;;;;;;;3.20;1.45;;;21.70;62.70;;;;;;5258176;27;20006;-53
2024/04/08 11:13:02;;;;;;;1.42;0.90;;;21.70;62.70;;;;;;5259746;26;20945;-46
2024/04/08 11:15:28;;;;;;;1.98;1.20;;;21.70;62.70;;;;;;5258697;27;20445;-54
2024/04/08 11:17:57;;;;;;;3.25;1.33;;;21.70;62.70;;;;;;5252363;26;20490;-47
2024/04/08 11:20:25;;;;;;;2.65;1.50;;;21.70;62.70;;;;;;5256770;27;20037;-54
2024/04/08 11:22:50;;;;;;;2.45;1.23;;;21.80;62.70;;;;;;5254852;27;20025;-55
2024/04/08 11:25:17;;;;;;;1.38;1.00;;;21.70;62.70;;;;;;5260405;26;20511;-46
2024/04/08 11:27:44;;;;;;;2.20;1.20;;;21.70;62.70;;;;;;5257584;27;20006;-47
2024/04/08 11:30:19;;;;;;;3.28;1.33;;;21.80;62.80;;;;;;5259522;26;20445;-52
2024/04/08 11:32:44;;;;;;;1.92;0.85;;;21.70;62.70;;;;;;5255731;27;20006;-46
2024/04/08 11:35:10;;;;;;;1.70;1.30;;;21.70;62.70;;;;;;5259203;26;20444;-49
2024/04/08 11:37:35;;;;;;;2.00;1.35;;;21.80;62.80;;;;;;5257945;26;20006;-53
2024/04/08 11:40:05;;;;;;;2.15;1.15;;;21.80;62.80;;;;;;5259323;27;20006;-55
2024/04/08 11:42:31;;;;;;;2.45;1.25;;;21.80;62.80;;;;;;5256028;27;20010;-49
2024/04/08 11:45:02;;;;;;;2.85;1.13;;;21.70;62.70;;;;;;5251246;27;22817;-46
2024/04/08 11:47:27;;;;;;;1.50;0.90;;;21.80;62.80;;;;;;5258607;27;20065;-55
2024/04/08 11:49:53;;;;;;;1.30;0.82;;;21.80;62.80;;;;;;5257404;26;20007;-50
2024/04/08 11:52:18;;;;;;;1.98;1.20;;;21.80;62.80;;;;;;5253948;27;20006;-50
2024/04/08 11:54:44;;;;;;;1.45;0.90;;;21.80;62.80;;;;;;5257527;27;20006;-53
2024/04/08 11:57:11;;;;;;;1.20;1.10;;;21.80;62.80;;;;;;5248864;27;20018;-55
2024/04/08 11:59:37;;;;;;;2.15;1.15;;;21.80;62.80;;;;;;5257219;26;20017;-49
2024/04/08 12:02:03;;;;;;;2.08;1.30;;;21.80;62.80;;;;;;5256770;26;20421;-50
2024/04/08 12:04:29;;;;;;;4.10;1.00;;;21.80;62.80;;;;;;5258453;26;20006;-60
2024/04/08 12:06:55;;;;;;;3.30;1.48;;;21.80;62.80;;;;;;5257821;27;20013;-48
2024/04/08 12:09:21;;;;;;;2.92;1.23;;;21.80;62.80;;;;;;5257369;27;20014;-48
2024/04/08 12:11:47;;;;;;;1.80;0.88;;;21.80;62.80;;;;;;5256871;27;20021;-50
2024/04/08 12:14:12;;;;;;;2.28;1.10;;;21.80;62.80;;;;;;5257313;27;20102;-55
2024/04/08 12:16:38;;;;;;;2.45;1.00;;;21.80;62.80;;;;;;5256920;26;20074;-49
2024/04/08 12:19:04;;;;;;;1.70;1.10;;;21.80;62.80;;;;;;5257635;26;20761;-49
2024/04/08 12:21:29;;;;;;;1.50;0.93;;;21.80;62.80;;;;;;5249617;26;20002;-57
2024/04/08 12:23:55;;;;;;;2.92;1.15;;;21.80;62.80;;;;;;5251082;26;20020;-50
2024/04/08 12:26:21;;;;;;;3.17;0.95;;;21.80;62.80;;;;;;5250023;26;20018;-53
2024/04/08 12:28:46;;;;;;;1.92;1.00;;;21.80;62.80;;;;;;5250702;27;19998;-55
2024/04/08 12:31:12;;;;;;;2.63;0.95;;;21.80;62.80;;;;;;5251941;26;20471;-53
2024/04/08 12:33:38;;;;;;;2.80;0.98;;;21.80;62.80;;;;;;5251880;26;21892;-58
2024/04/08 12:36:09;;;;;;;2.17;1.10;;;21.80;62.90;;;;;;5250021;27;20003;-50
2024/04/08 12:38:34;;;;;;;1.95;1.02;;;21.80;62.80;;;;;;5251518;27;20006;-57
2024/04/08 12:41:00;;;;;;;2.05;0.95;;;21.80;62.80;;;;;;5252965;27;20051;-49